Overview Statistics Trail Chart Weather Telemetry Raw packets
 

This is the latest recevied telemetry packets stored in our database for station/object IU5IWS-12. If no packets are shown the sender has not sent any telemetry packets the latest 10 day(s).

Telemetry packets is used to share measurements like repeteater parameters, battery voltage, radiation readings (or any other measurements).

<< 1 2 3 4 >>
Time Press* Temp.in* Hum* QNH* Temp.out*
1788565346 937 hPa 23.4 C deg 49.5 % 1026.2 hPa 0 C deg
1788563508 937.2 hPa 23.6 C deg 50.1 % 1026.3 hPa 0 C deg
1788563508 937.2 hPa 23.6 C deg 50.1 % 1026.3 hPa 0 C deg
1788561672 937.4 hPa 23.2 C deg 49.3 % 1026.6 hPa 0 C deg
1788559846 937.4 hPa 23.9 C deg 51.1 % 1026.4 hPa 0 C deg
1788558007 937.5 hPa 23.6 C deg 55.6 % 1026.7 hPa 0 C deg
1788558007 937.5 hPa 23.6 C deg 55.6 % 1026.7 hPa 0 C deg
1788556187 937.5 hPa 23.6 C deg 56.4 % 1026.6 hPa 0 C deg
1788554353 937.5 hPa 23.7 C deg 53.1 % 1026.6 hPa 0 C deg
1788554353 937.5 hPa 23.7 C deg 53.1 % 1026.6 hPa 0 C deg
1788552517 937.4 hPa 24.1 C deg 46.5 % 1026.4 hPa 0 C deg
1788550692 937.5 hPa 24.1 C deg 44.9 % 1026.5 hPa 0 C deg
1788550692 937.5 hPa 24.1 C deg 44.9 % 1026.5 hPa 0 C deg
1788548855 937.5 hPa 25.5 C deg 43.3 % 1026 hPa 0 C deg
1788548049 937.4 hPa 24.5 C deg 45.3 % 1026.2 hPa 0 C deg
1788547653 937.4 hPa 24.7 C deg 44.8 % 1026.1 hPa 0 C deg
1788547027 937.3 hPa 25.2 C deg 45 % 1025.9 hPa 0 C deg
1788545209 937.1 hPa 26.4 C deg 43.2 % 1025.3 hPa 0 C deg
1788545195 937.1 hPa 26.4 C deg 43.2 % 1025.3 hPa 0 C deg
1788542450 936.9 hPa 28.5 C deg 39.8 % 1024.4 hPa 0 C deg
1788542450 936.9 hPa 28.5 C deg 39.8 % 1024.4 hPa 0 C deg
1788540615 937 hPa 29 C deg 40 % 1024.4 hPa 0 C deg
1788538790 937.1 hPa 29.5 C deg 39.1 % 1024.4 hPa 0 C deg
1788536958 937.2 hPa 29.8 C deg 38.8 % 1024.3 hPa 0 C deg
1788535137 937.1 hPa 30.3 C deg 38.6 % 1024.2 hPa 0 C deg
*Used Equation Coefficients:
Press: 0, 1, 0
Temp.in: 0, 1, 0
Hum: 0, 1, 0
QNH: 0, 1, 0
Temp.out: 0, 1, 0

  • The parameter names for the analog channels will be Value1, Value2, Value3 (up to Value5) if station has not sent a PARAM-packet that specifies the parameter names for each analog channel.
  • Each analog value is a decimal number between 000 and 255 (according to APRS specifications). The receiver use the telemetry equation coefficientsto to restore the original sensor values. If no EQNS-packet with equation coefficients is sent we will show the values as is (this corresponds to the equation coefficients a=0, b=1 and c=0).
    The sent equation coefficients is used in the equation: a * value2 + b * value + c.
  • The units for the analog values will not be shown if station has not sent a UNIT-packet specifying what unit's to use.
  • The parameter names for the digital bits will be Bit1, Bit2, Bit3 (up to Bit8) if station has not sent a PARAM-packet that specifies the parameter names for each digital bit.
  • All bit labels will be named "On" if station has not sent a UNIT-packet that specifies the label of each bit.
  • A bit is considered to be On when the bit is 1 if station has not sent a BITS-packet that specifies another "Bit sense" (a BITS-packet specify the state of the bits that match the BIT labels)